createdAt,value
2023-05-07T00:02:01.852Z,14.15
2023-05-07T00:04:29.563Z,14.90
2023-05-07T00:06:56.778Z,15.70
2023-05-07T00:09:23.500Z,14.82
2023-05-07T00:11:50.204Z,14.88
2023-05-07T00:14:16.906Z,15.07
2023-05-07T00:16:43.633Z,15.77
2023-05-07T00:19:10.279Z,14.73
2023-05-07T00:21:37.025Z,16.85
2023-05-07T00:24:04.489Z,14.88
2023-05-07T00:26:31.145Z,15.70
2023-05-07T00:28:57.828Z,12.82
2023-05-07T00:31:24.527Z,12.70
2023-05-07T00:33:51.220Z,16.45
2023-05-07T00:36:17.907Z,14.15
2023-05-07T00:38:44.568Z,17.85
2023-05-07T00:41:11.297Z,17.13
2023-05-07T00:43:37.996Z,17.98
2023-05-07T00:46:04.851Z,21.40
2023-05-07T00:48:31.733Z,23.92
2023-05-07T00:50:58.398Z,18.33
2023-05-07T00:53:25.075Z,19.70
2023-05-07T00:55:51.717Z,22.42
2023-05-07T00:58:18.385Z,20.88
2023-05-07T01:00:45.392Z,24.70
2023-05-07T01:03:12.043Z,21.75
2023-05-07T01:05:39.218Z,22.40
2023-05-07T01:08:06.483Z,25.52
2023-05-07T01:10:33.326Z,24.17
2023-05-07T01:13:00.228Z,23.80
2023-05-07T01:15:26.994Z,21.33
2023-05-07T01:17:53.655Z,23.45
2023-05-07T01:20:20.677Z,24.83
2023-05-07T01:22:47.415Z,22.67
2023-05-07T01:25:14.736Z,23.02
2023-05-07T01:27:41.347Z,24.30
2023-05-07T01:30:08.781Z,20.02
2023-05-07T01:32:49.533Z,21.35
2023-05-07T01:35:21.717Z,19.52
2023-05-07T01:37:48.681Z,19.60
2023-05-07T01:40:15.373Z,20.20
2023-05-07T01:42:43.095Z,18.88
2023-05-07T01:45:10.473Z,19.90
2023-05-07T01:47:40.226Z,18.63
2023-05-07T01:50:09.548Z,20.73
2023-05-07T01:52:38.687Z,19.20
2023-05-07T01:55:06.639Z,19.45
2023-05-07T01:57:33.374Z,19.55
2023-05-07T02:00:00.047Z,19.38
2023-05-07T02:02:26.815Z,18.45
2023-05-07T02:04:53.597Z,19.88
2023-05-07T02:07:20.774Z,19.70
2023-05-07T02:09:47.476Z,18.20
2023-05-07T02:12:14.220Z,19.13
2023-05-07T02:14:40.965Z,20.33
2023-05-07T02:17:07.653Z,20.75
2023-05-07T02:19:34.359Z,20.42
2023-05-07T02:22:01.012Z,20.25
2023-05-07T02:24:27.691Z,18.88
2023-05-07T02:26:54.366Z,19.48
2023-05-07T02:29:21.083Z,18.70
2023-05-07T02:31:52.047Z,18.08
2023-05-07T02:34:18.830Z,20.88
2023-05-07T02:36:45.622Z,20.40
2023-05-07T02:39:12.985Z,20.42
2023-05-07T02:41:39.697Z,20.38
2023-05-07T02:44:06.354Z,20.02
2023-05-07T02:46:33.007Z,19.60
2023-05-07T02:48:59.663Z,19.48
2023-05-07T02:51:27.077Z,18.50
2023-05-07T02:53:53.724Z,19.08
2023-05-07T02:56:20.831Z,18.58
2023-05-07T02:58:47.481Z,18.23
2023-05-07T03:01:15.102Z,18.40
2023-05-07T03:03:41.917Z,19.52
2023-05-07T03:06:08.735Z,19.02
2023-05-07T03:08:35.591Z,20.63
2023-05-07T03:11:02.401Z,22.10
2023-05-07T03:13:29.062Z,26.85
2023-05-07T03:15:56.115Z,22.25
2023-05-07T03:18:23.016Z,24.90
2023-05-07T03:20:49.822Z,24.77
2023-05-07T03:23:16.547Z,23.75
2023-05-07T03:25:43.198Z,23.88
2023-05-07T03:28:09.833Z,22.50
2023-05-07T03:30:36.457Z,23.85
2023-05-07T03:33:03.192Z,20.77
2023-05-07T03:35:29.938Z,21.42
2023-05-07T03:37:56.626Z,20.95
2023-05-07T03:40:23.293Z,24.83
2023-05-07T03:42:49.975Z,21.95
2023-05-07T03:45:16.745Z,22.65
2023-05-07T03:47:43.552Z,20.77
2023-05-07T03:50:11.916Z,21.27
2023-05-07T03:52:38.831Z,21.67
2023-05-07T03:55:07.365Z,21.02
2023-05-07T03:57:34.234Z,17.45
2023-05-07T04:00:00.890Z,18.73
2023-05-07T04:02:27.715Z,19.33
2023-05-07T04:04:55.140Z,20.48
2023-05-07T04:07:21.780Z,17.23
2023-05-07T04:09:48.414Z,19.17
2023-05-07T04:12:16.138Z,20.23
2023-05-07T04:14:42.816Z,18.25
2023-05-07T04:17:10.860Z,17.92
2023-05-07T04:19:37.524Z,18.35
2023-05-07T04:22:04.433Z,18.00
2023-05-07T04:24:34.323Z,16.05
2023-05-07T04:27:01.018Z,17.02
2023-05-07T04:29:28.219Z,17.08
2023-05-07T04:31:56.920Z,15.95
2023-05-07T04:34:23.953Z,13.98
2023-05-07T04:36:50.697Z,16.08
2023-05-07T04:39:17.451Z,13.63
2023-05-07T04:41:44.107Z,14.65
2023-05-07T04:44:10.779Z,12.32
2023-05-07T04:46:38.610Z,12.10
2023-05-07T04:49:05.368Z,12.05
2023-05-07T04:51:33.890Z,11.70
2023-05-07T04:54:00.535Z,11.55
2023-05-07T04:56:29.938Z,11.68
2023-05-07T04:58:57.014Z,10.93
2023-05-07T05:01:23.723Z,12.27
2023-05-07T05:03:50.477Z,11.52
2023-05-07T05:06:17.161Z,10.30
2023-05-07T05:08:43.917Z,9.90
2023-05-07T05:11:11.005Z,12.25
2023-05-07T05:13:37.750Z,9.82
2023-05-07T05:16:04.635Z,12.02
2023-05-07T05:18:31.361Z,10.38
2023-05-07T05:20:58.005Z,10.32
2023-05-07T05:23:24.646Z,10.80
2023-05-07T05:25:51.310Z,11.07
2023-05-07T05:28:17.951Z,9.25
2023-05-07T05:34:31.943Z,7.43
2023-05-07T05:36:58.607Z,5.88
2023-05-07T05:39:25.234Z,12.48
2023-05-07T05:41:51.836Z,6.63
2023-05-07T05:44:18.519Z,7.05
2023-05-07T05:46:45.668Z,6.18
2023-05-07T05:49:12.304Z,8.93
2023-05-07T05:51:39.023Z,8.38
2023-05-07T05:54:18.845Z,8.02
2023-05-07T05:56:45.637Z,8.20
2023-05-07T05:59:12.546Z,8.50
2023-05-07T06:01:39.697Z,9.48
2023-05-07T06:04:06.394Z,8.70
2023-05-07T06:06:33.324Z,9.73
2023-05-07T06:08:59.924Z,9.15
2023-05-07T06:11:27.524Z,10.70
2023-05-07T06:13:54.140Z,10.10
2023-05-07T06:16:20.929Z,10.60
2023-05-07T06:18:47.868Z,10.18
2023-05-07T06:21:14.821Z,9.68
2023-05-07T06:23:41.939Z,9.85
2023-05-07T06:26:08.774Z,9.80
2023-05-07T06:28:38.125Z,10.70
2023-05-07T06:31:18.060Z,10.07
2023-05-07T06:33:45.552Z,9.32
2023-05-07T06:36:12.185Z,9.00
2023-05-07T06:38:38.831Z,9.73
2023-05-07T06:41:07.078Z,10.32
2023-05-07T06:43:34.202Z,12.30
2023-05-07T06:46:00.890Z,10.32
2023-05-07T06:48:27.504Z,11.07
2023-05-07T06:50:56.187Z,11.00
2023-05-07T06:53:22.852Z,11.43
2023-05-07T06:55:49.606Z,12.07
2023-05-07T06:58:16.478Z,12.05
2023-05-07T07:00:43.104Z,12.20
2023-05-07T07:03:09.792Z,11.13
2023-05-07T07:05:36.527Z,11.50
2023-05-07T07:08:03.139Z,11.98
2023-05-07T07:10:29.727Z,12.20
2023-05-07T07:12:56.405Z,12.80
2023-05-07T07:15:23.099Z,12.98
2023-05-07T07:17:50.050Z,11.63
2023-05-07T07:20:17.417Z,11.88
2023-05-07T07:22:44.269Z,11.52
2023-05-07T07:25:12.042Z,10.13
2023-05-07T07:27:38.927Z,10.05
2023-05-07T07:30:06.348Z,10.20
2023-05-07T07:32:34.475Z,9.35
2023-05-07T07:35:01.331Z,9.43
2023-05-07T07:37:28.120Z,9.25
2023-05-07T07:39:54.801Z,8.82
2023-05-07T07:42:21.420Z,8.00
2023-05-07T07:44:48.020Z,11.35
2023-05-07T07:47:14.622Z,11.68
2023-05-07T07:49:41.292Z,11.95
2023-05-07T07:52:07.940Z,10.50
2023-05-07T07:54:34.583Z,9.40
2023-05-07T07:57:02.532Z,12.10
2023-05-07T07:59:29.189Z,10.13
2023-05-07T08:01:57.893Z,11.30
2023-05-07T08:04:24.693Z,8.70
2023-05-07T08:06:51.457Z,10.57
2023-05-07T08:09:18.096Z,10.70
2023-05-07T08:11:44.703Z,8.80
2023-05-07T08:14:11.361Z,8.13
2023-05-07T08:16:37.988Z,8.27
2023-05-07T08:19:04.690Z,8.07
2023-05-07T08:21:33.768Z,10.00
2023-05-07T08:24:01.118Z,10.07
2023-05-07T08:26:27.751Z,14.55
2023-05-07T08:28:54.417Z,11.35
2023-05-07T08:31:21.254Z,12.90
2023-05-07T08:33:47.991Z,10.35
2023-05-07T08:36:14.656Z,9.30
2023-05-07T08:38:43.802Z,9.15
2023-05-07T08:41:12.017Z,10.02
2023-05-07T08:43:39.103Z,10.05
2023-05-07T08:46:07.488Z,9.73
2023-05-07T08:48:36.136Z,10.18
2023-05-07T08:51:02.930Z,11.00
2023-05-07T08:53:29.849Z,11.13
2023-05-07T08:55:56.460Z,10.65
2023-05-07T08:58:23.108Z,11.73
2023-05-07T09:00:49.714Z,12.15
2023-05-07T09:03:17.141Z,12.15
2023-05-07T09:05:45.186Z,13.95
2023-05-07T09:08:15.950Z,13.93
2023-05-07T09:10:42.611Z,17.25
2023-05-07T09:13:10.163Z,15.60
2023-05-07T09:15:36.956Z,17.05
2023-05-07T09:18:03.660Z,18.38
2023-05-07T09:20:33.487Z,19.10
2023-05-07T09:23:00.234Z,19.08
2023-05-07T09:25:30.899Z,18.02
2023-05-07T09:27:57.541Z,16.52
2023-05-07T09:30:24.320Z,16.05
2023-05-07T09:32:52.036Z,17.27
2023-05-07T09:35:19.062Z,16.98
2023-05-07T09:37:45.839Z,17.25
2023-05-07T09:40:32.862Z,18.13
2023-05-07T09:43:10.660Z,17.67
2023-05-07T09:45:37.398Z,21.23
2023-05-07T09:48:04.308Z,18.48
2023-05-07T09:50:33.744Z,21.98
2023-05-07T09:53:00.354Z,21.73
2023-05-07T09:55:26.943Z,27.02
2023-05-07T09:57:54.118Z,20.20
2023-05-07T10:00:22.285Z,17.88
2023-05-07T10:02:53.460Z,20.80
2023-05-07T10:05:23.110Z,17.73
2023-05-07T10:07:50.346Z,19.40
2023-05-07T10:10:17.177Z,19.42
2023-05-07T10:12:44.015Z,18.40
2023-05-07T10:15:11.720Z,17.95
2023-05-07T10:17:39.320Z,20.67
2023-05-07T10:20:08.450Z,19.52
2023-05-07T10:22:46.438Z,20.88
2023-05-07T10:25:19.648Z,19.85
2023-05-07T10:27:47.103Z,19.05
2023-05-07T10:30:38.422Z,18.17
2023-05-07T10:33:09.019Z,19.95
2023-05-07T10:35:43.241Z,20.67
2023-05-07T10:38:10.052Z,20.05
2023-05-07T10:40:36.925Z,20.73
2023-05-07T10:43:10.288Z,21.92
2023-05-07T10:45:37.646Z,21.00
2023-05-07T10:48:27.993Z,24.35
2023-05-07T10:51:22.542Z,20.92
2023-05-07T10:53:49.347Z,20.00
2023-05-07T10:56:19.007Z,21.52
2023-05-07T10:58:45.764Z,21.80
2023-05-07T11:01:14.296Z,18.13
2023-05-07T11:04:15.935Z,23.63
2023-05-07T11:06:42.663Z,21.10
2023-05-07T11:09:09.268Z,24.30
2023-05-07T11:11:47.902Z,21.23
2023-05-07T11:14:15.832Z,24.95
2023-05-07T11:16:43.095Z,21.77
2023-05-07T11:19:09.851Z,21.90
2023-05-07T11:21:36.930Z,22.90
2023-05-07T11:24:04.345Z,23.20
2023-05-07T11:26:32.534Z,22.08
2023-05-07T11:29:01.390Z,21.55
2023-05-07T11:31:29.695Z,21.70
2023-05-07T11:33:56.596Z,21.80
2023-05-07T11:36:23.901Z,21.23
2023-05-07T11:38:50.526Z,20.45
2023-05-07T11:41:17.457Z,19.17
2023-05-07T11:43:57.680Z,21.65
2023-05-07T11:46:24.650Z,21.80
2023-05-07T11:48:51.569Z,23.35
2023-05-07T11:51:25.392Z,21.35
2023-05-07T11:53:52.126Z,26.67
2023-05-07T11:56:19.274Z,27.35
2023-05-07T11:58:46.734Z,24.90
2023-05-07T12:01:14.046Z,26.75
2023-05-07T12:03:46.812Z,29.40
2023-05-07T12:06:15.167Z,27.05
2023-05-07T12:08:42.785Z,27.05
2023-05-07T12:11:12.441Z,27.67
2023-05-07T12:13:39.410Z,26.08
2023-05-07T12:16:06.945Z,28.38
2023-05-07T12:18:34.805Z,26.40
2023-05-07T12:21:01.510Z,26.17
2023-05-07T12:23:28.199Z,26.17
2023-05-07T12:25:54.885Z,26.73
2023-05-07T12:28:21.741Z,26.90
2023-05-07T12:30:49.165Z,26.38
2023-05-07T12:33:20.259Z,26.63
2023-05-07T12:35:46.975Z,29.40
2023-05-07T12:38:14.629Z,25.75
2023-05-07T12:40:51.766Z,24.98
2023-05-07T12:43:22.680Z,22.55
2023-05-07T12:45:50.249Z,22.35
2023-05-07T12:48:16.921Z,21.10
2023-05-07T12:50:44.106Z,21.33
2023-05-07T12:53:13.067Z,21.27
2023-05-07T12:55:47.013Z,20.40
2023-05-07T12:58:33.974Z,18.27
2023-05-07T13:01:01.898Z,19.95
2023-05-07T13:03:35.972Z,21.55
2023-05-07T13:06:16.167Z,21.00
2023-05-07T13:08:45.564Z,21.90
2023-05-07T13:11:12.567Z,20.33
2023-05-07T13:13:40.886Z,20.92
2023-05-07T13:16:09.526Z,22.70
2023-05-07T13:18:36.724Z,20.92
2023-05-07T13:21:03.678Z,19.25
2023-05-07T13:23:30.585Z,18.95
2023-05-07T13:25:57.714Z,21.83
2023-05-07T13:28:25.126Z,20.05
2023-05-07T13:30:52.933Z,18.58
2023-05-07T13:33:19.622Z,19.15
2023-05-07T13:35:46.325Z,18.52
2023-05-07T13:38:12.943Z,19.67
2023-05-07T13:40:39.564Z,19.45
2023-05-07T13:43:06.832Z,20.35
2023-05-07T13:45:33.662Z,19.15
2023-05-07T13:48:00.648Z,19.73
2023-05-07T13:50:31.052Z,17.15
2023-05-07T13:52:57.989Z,16.98
2023-05-07T13:55:25.023Z,16.60
2023-05-07T13:57:58.716Z,17.15
2023-05-07T14:00:26.249Z,16.52
2023-05-07T14:02:53.374Z,16.27
2023-05-07T14:05:20.579Z,15.90
2023-05-07T14:07:48.010Z,16.58
2023-05-07T14:10:14.924Z,16.13
2023-05-07T14:12:42.055Z,16.90
2023-05-07T14:15:09.200Z,15.43
2023-05-07T14:17:35.956Z,17.05
2023-05-07T14:20:02.657Z,16.65
2023-05-07T14:22:29.415Z,16.92
2023-05-07T14:25:06.307Z,18.13
2023-05-07T14:27:33.760Z,17.25
2023-05-07T14:30:00.390Z,18.02
2023-05-07T14:32:27.086Z,17.98
2023-05-07T14:34:53.978Z,18.60
2023-05-07T14:37:21.144Z,21.25
2023-05-07T14:39:49.742Z,21.02
2023-05-07T14:42:16.805Z,20.30
2023-05-07T14:44:43.492Z,23.25
2023-05-07T14:47:10.141Z,21.98
2023-05-07T14:49:37.048Z,21.30
2023-05-07T14:52:04.017Z,20.88
2023-05-07T14:54:30.951Z,19.50
2023-05-07T14:56:57.760Z,22.38
2023-05-07T14:59:26.124Z,22.20
2023-05-07T15:01:52.899Z,25.05
2023-05-07T15:04:19.885Z,25.35
2023-05-07T15:06:47.742Z,26.10
2023-05-07T15:09:14.685Z,22.85
2023-05-07T15:11:41.333Z,21.15
2023-05-07T15:14:08.036Z,23.40
2023-05-07T15:16:35.389Z,23.52
2023-05-07T15:19:02.209Z,23.08
2023-05-07T15:21:28.897Z,22.38
2023-05-07T15:23:55.537Z,24.02
2023-05-07T15:26:22.175Z,24.10
2023-05-07T15:28:48.828Z,24.20
2023-05-07T15:31:16.723Z,24.60
2023-05-07T15:33:43.495Z,24.67
2023-05-07T15:36:10.128Z,24.05
2023-05-07T15:38:36.795Z,26.67
2023-05-07T15:41:04.328Z,27.60
2023-05-07T15:43:30.942Z,22.95
2023-05-07T15:45:57.692Z,22.30
2023-05-07T15:48:24.365Z,23.95
2023-05-07T15:50:51.030Z,22.08
2023-05-07T15:53:17.642Z,25.75
2023-05-07T15:55:44.631Z,25.70
2023-05-07T15:58:11.310Z,23.17
2023-05-07T16:00:40.797Z,23.30
2023-05-07T16:03:08.532Z,22.42
2023-05-07T16:05:35.411Z,21.40
2023-05-07T16:08:02.264Z,23.48
2023-05-07T16:10:28.958Z,24.05
2023-05-07T16:12:55.848Z,25.67
2023-05-07T16:15:22.518Z,24.63
2023-05-07T16:17:51.935Z,23.80
2023-05-07T16:20:20.083Z,25.63
2023-05-07T16:22:46.955Z,26.25
2023-05-07T16:25:14.914Z,25.90
2023-05-07T16:27:41.760Z,26.85
2023-05-07T16:30:08.965Z,25.90
2023-05-07T16:32:36.367Z,24.77
2023-05-07T16:35:03.496Z,27.80
2023-05-07T16:37:30.270Z,25.10
2023-05-07T16:39:57.244Z,24.27
2023-05-07T16:42:23.893Z,24.38
2023-05-07T16:44:50.665Z,24.98
2023-05-07T16:47:17.821Z,24.88
2023-05-07T16:49:44.612Z,21.80
2023-05-07T16:52:11.320Z,22.63
2023-05-07T16:54:38.008Z,21.08
2023-05-07T16:57:04.593Z,19.02
2023-05-07T16:59:33.562Z,17.55
2023-05-07T17:02:00.521Z,18.50
2023-05-07T17:04:27.284Z,16.42
2023-05-07T17:06:53.936Z,18.00
2023-05-07T17:09:20.654Z,19.50
2023-05-07T17:11:47.275Z,19.83
2023-05-07T17:14:13.950Z,18.45
2023-05-07T17:16:40.851Z,21.40
2023-05-07T17:19:07.639Z,20.92
2023-05-07T17:21:34.320Z,19.00
2023-05-07T17:24:00.953Z,20.63
2023-05-07T17:26:28.010Z,18.50
2023-05-07T17:28:54.721Z,17.50
2023-05-07T17:31:21.647Z,17.52
2023-05-07T17:33:48.285Z,15.75
2023-05-07T17:36:15.307Z,15.57
2023-05-07T17:38:42.041Z,16.00
2023-05-07T17:41:08.650Z,14.38
2023-05-07T17:43:35.363Z,12.23
2023-05-07T17:46:03.282Z,12.30
2023-05-07T17:48:30.247Z,10.27
2023-05-07T17:51:04.110Z,11.45
2023-05-07T17:53:31.052Z,10.52
2023-05-07T17:55:57.667Z,9.00
2023-05-07T17:58:26.622Z,8.95
2023-05-07T18:00:56.316Z,9.20
2023-05-07T18:03:24.555Z,9.32
2023-05-07T18:05:51.396Z,8.68
2023-05-07T18:08:18.040Z,9.02
2023-05-07T18:10:44.681Z,8.18
2023-05-07T18:13:11.346Z,7.32
2023-05-07T18:15:38.038Z,7.68
2023-05-07T18:18:04.967Z,8.70
2023-05-07T18:20:31.853Z,7.85
2023-05-07T18:22:58.523Z,9.30
2023-05-07T18:25:25.196Z,9.48
2023-05-07T18:27:51.837Z,9.10
2023-05-07T18:30:18.517Z,10.17
2023-05-07T18:32:45.234Z,10.73
2023-05-07T18:35:12.007Z,10.27
2023-05-07T18:37:38.675Z,10.83
2023-05-07T18:40:06.260Z,9.67
2023-05-07T18:42:36.275Z,9.53
2023-05-07T18:45:04.224Z,9.67
2023-05-07T18:47:31.314Z,9.93
2023-05-07T18:49:58.210Z,9.43
2023-05-07T18:52:26.179Z,9.57
2023-05-07T18:54:52.787Z,8.00
2023-05-07T18:57:19.464Z,8.53
2023-05-07T18:59:46.077Z,7.83
2023-05-07T19:02:14.190Z,7.87
2023-05-07T19:04:41.031Z,7.63
2023-05-07T19:07:07.941Z,8.00
2023-05-07T19:09:34.660Z,8.17
2023-05-07T19:12:02.156Z,7.73
2023-05-07T19:14:28.938Z,7.90
2023-05-07T19:16:56.498Z,8.73
2023-05-07T19:19:23.285Z,8.10
2023-05-07T19:21:50.106Z,7.73
2023-05-07T19:24:16.777Z,8.10
2023-05-07T19:26:43.574Z,8.83
2023-05-07T19:29:17.400Z,9.40
2023-05-07T19:31:44.609Z,8.68
2023-05-07T19:34:13.256Z,9.17
2023-05-07T19:36:40.224Z,10.53
2023-05-07T19:39:07.383Z,8.20
2023-05-07T19:41:34.088Z,10.43
2023-05-07T19:44:00.890Z,10.80
2023-05-07T19:46:27.612Z,10.47
2023-05-07T19:48:54.435Z,10.55
2023-05-07T19:51:21.150Z,10.20
2023-05-07T19:53:47.991Z,9.47
2023-05-07T19:56:15.858Z,9.03
2023-05-07T19:58:42.505Z,10.00
2023-05-07T20:01:09.494Z,9.70
2023-05-07T20:03:36.428Z,9.13
2023-05-07T20:06:03.475Z,9.90
2023-05-07T20:08:30.389Z,9.37
2023-05-07T20:10:57.716Z,10.73
2023-05-07T20:13:24.484Z,9.57
2023-05-07T20:15:51.240Z,11.25
2023-05-07T20:18:17.881Z,10.63
2023-05-07T20:20:45.453Z,10.97
2023-05-07T20:23:12.186Z,10.50
2023-05-07T20:25:41.347Z,10.77
2023-05-07T20:28:08.125Z,11.23
2023-05-07T20:30:35.419Z,11.03
2023-05-07T20:33:04.052Z,11.70
2023-05-07T20:35:32.268Z,11.93
2023-05-07T20:37:59.009Z,11.20
2023-05-07T20:40:26.768Z,12.53
2023-05-07T20:42:53.420Z,12.60
2023-05-07T20:45:20.445Z,13.97
2023-05-07T20:47:47.425Z,12.83
2023-05-07T20:50:14.361Z,13.23
2023-05-07T20:52:41.797Z,13.60
2023-05-07T20:55:08.977Z,13.90
2023-05-07T20:57:51.096Z,13.10
2023-05-07T21:00:18.605Z,13.67
2023-05-07T21:02:45.400Z,14.80
2023-05-07T21:05:12.374Z,12.93
2023-05-07T21:07:39.086Z,13.63
2023-05-07T21:10:06.357Z,13.03
2023-05-07T21:12:33.139Z,13.30
2023-05-07T21:14:59.803Z,12.90
2023-05-07T21:17:29.015Z,11.47
2023-05-07T21:19:55.859Z,12.90
2023-05-07T21:22:22.660Z,11.90
2023-05-07T21:24:49.572Z,12.53
2023-05-07T21:27:16.296Z,12.60
2023-05-07T21:29:42.889Z,12.17
2023-05-07T21:32:09.481Z,12.07
2023-05-07T21:34:36.117Z,12.03
2023-05-07T21:37:03.045Z,10.00
2023-05-07T21:39:29.692Z,10.37
2023-05-07T21:41:56.996Z,11.53
2023-05-07T21:44:23.629Z,11.07
2023-05-07T21:46:50.371Z,10.77
2023-05-07T21:49:17.136Z,9.23
2023-05-07T21:51:43.777Z,9.87
2023-05-07T21:54:10.484Z,10.60
2023-05-07T21:56:37.242Z,10.07
2023-05-07T21:59:03.899Z,10.23
2023-05-07T22:01:30.529Z,9.83
2023-05-07T22:03:57.422Z,9.93
2023-05-07T22:06:26.129Z,11.47
2023-05-07T22:08:52.886Z,10.93
2023-05-07T22:11:19.619Z,10.57
2023-05-07T22:13:46.353Z,9.53
2023-05-07T22:16:14.457Z,10.07
2023-05-07T22:18:41.107Z,10.57
2023-05-07T22:21:07.949Z,10.30
2023-05-07T22:23:34.870Z,10.50
2023-05-07T22:26:01.483Z,11.07
2023-05-07T22:28:28.095Z,10.37
2023-05-07T22:30:54.749Z,11.60
2023-05-07T22:33:21.435Z,10.90
2023-05-07T22:35:48.140Z,11.10
2023-05-07T22:38:56.808Z,11.47
2023-05-07T22:41:23.987Z,10.87
2023-05-07T22:43:50.707Z,10.50
2023-05-07T22:46:17.923Z,10.60
2023-05-07T22:48:44.609Z,10.90
2023-05-07T22:51:14.809Z,10.70
2023-05-07T22:53:41.661Z,11.93
2023-05-07T22:56:08.753Z,10.20
2023-05-07T22:58:35.471Z,11.10
2023-05-07T23:01:02.553Z,11.33
2023-05-07T23:03:29.489Z,10.67
2023-05-07T23:05:56.158Z,12.10
2023-05-07T23:08:23.378Z,11.40
2023-05-07T23:10:50.037Z,11.07
2023-05-07T23:13:17.556Z,10.30
2023-05-07T23:15:44.470Z,10.77
2023-05-07T23:18:11.467Z,11.17
2023-05-07T23:20:39.769Z,11.27
2023-05-07T23:23:06.429Z,11.27
2023-05-07T23:25:33.150Z,10.93
2023-05-07T23:27:59.753Z,10.07
2023-05-07T23:30:26.560Z,10.87
2023-05-07T23:32:53.251Z,10.97
2023-05-07T23:35:20.107Z,11.10
2023-05-07T23:37:46.748Z,10.73
2023-05-07T23:40:13.506Z,10.37
2023-05-07T23:42:40.780Z,11.03
2023-05-07T23:45:07.690Z,11.93
2023-05-07T23:47:34.340Z,10.93
2023-05-07T23:50:01.022Z,10.57
2023-05-07T23:52:27.634Z,10.27
2023-05-07T23:54:54.300Z,11.03
2023-05-07T23:57:20.953Z,11.10
2023-05-07T23:59:47.559Z,9.67
